sensor_id;sensor_type;location;lat;lon;timestamp;temperature;humidity
71304;DHT22;59091;47.446;19.148;2023-06-14T00:01:49;16.50;66.12
71304;DHT22;59091;47.446;19.148;2023-06-14T00:04:15;16.53;65.79
71304;DHT22;59091;47.446;19.148;2023-06-14T00:06:46;16.31;66.21
71304;DHT22;59091;47.446;19.148;2023-06-14T00:09:11;16.38;66.29
71304;DHT22;59091;47.446;19.148;2023-06-14T00:11:42;16.38;66.20
71304;DHT22;59091;47.446;19.148;2023-06-14T00:14:08;16.35;66.08
71304;DHT22;59091;47.446;19.148;2023-06-14T00:16:34;16.31;66.25
71304;DHT22;59091;47.446;19.148;2023-06-14T00:19:01;16.30;66.40
71304;DHT22;59091;47.446;19.148;2023-06-14T00:21:29;16.38;66.48
71304;DHT22;59091;47.446;19.148;2023-06-14T00:23:55;16.38;66.33
71304;DHT22;59091;47.446;19.148;2023-06-14T00:26:20;16.34;66.40
71304;DHT22;59091;47.446;19.148;2023-06-14T00:28:46;16.31;66.49
71304;DHT22;59091;47.446;19.148;2023-06-14T00:31:11;16.28;66.77
71304;DHT22;59091;47.446;19.148;2023-06-14T00:33:37;16.14;67.46
71304;DHT22;59091;47.446;19.148;2023-06-14T00:36:02;16.13;67.56
71304;DHT22;59091;47.446;19.148;2023-06-14T00:38:28;16.13;67.78
71304;DHT22;59091;47.446;19.148;2023-06-14T00:40:53;16.14;67.70
71304;DHT22;59091;47.446;19.148;2023-06-14T00:43:18;16.04;67.96
71304;DHT22;59091;47.446;19.148;2023-06-14T00:45:44;16.12;68.16
71304;DHT22;59091;47.446;19.148;2023-06-14T00:48:10;16.14;67.95
71304;DHT22;59091;47.446;19.148;2023-06-14T00:50:36;16.16;67.96
71304;DHT22;59091;47.446;19.148;2023-06-14T00:53:01;16.10;67.83
71304;DHT22;59091;47.446;19.148;2023-06-14T00:55:27;16.10;67.82
71304;DHT22;59091;47.446;19.148;2023-06-14T00:57:54;16.09;67.68
71304;DHT22;59091;47.446;19.148;2023-06-14T01:00:20;16.13;67.87
71304;DHT22;59091;47.446;19.148;2023-06-14T01:02:45;16.10;67.97
71304;DHT22;59091;47.446;19.148;2023-06-14T01:05:12;16.09;68.18
71304;DHT22;59091;47.446;19.148;2023-06-14T01:13:35;15.99;68.01
71304;DHT22;59091;47.446;19.148;2023-06-14T01:16:02;15.90;68.54
71304;DHT22;59091;47.446;19.148;2023-06-14T01:18:28;15.90;68.84
71304;DHT22;59091;47.446;19.148;2023-06-14T01:20:55;15.96;68.62
71304;DHT22;59091;47.446;19.148;2023-06-14T01:23:22;15.97;68.49
71304;DHT22;59091;47.446;19.148;2023-06-14T01:25:49;15.92;68.55
71304;DHT22;59091;47.446;19.148;2023-06-14T01:28:19;15.87;68.60
71304;DHT22;59091;47.446;19.148;2023-06-14T01:30:48;15.86;68.56
71304;DHT22;59091;47.446;19.148;2023-06-14T01:33:20;15.87;68.71
71304;DHT22;59091;47.446;19.148;2023-06-14T01:35:49;15.86;68.80
71304;DHT22;59091;47.446;19.148;2023-06-14T01:38:17;15.85;68.80
71304;DHT22;59091;47.446;19.148;2023-06-14T01:40:44;15.81;69.01
71304;DHT22;59091;47.446;19.148;2023-06-14T01:43:12;15.79;69.07
71304;DHT22;59091;47.446;19.148;2023-06-14T01:45:40;15.76;69.21
71304;DHT22;59091;47.446;19.148;2023-06-14T01:48:06;15.75;69.12
71304;DHT22;59091;47.446;19.148;2023-06-14T01:50:31;15.70;69.21
71304;DHT22;59091;47.446;19.148;2023-06-14T01:52:57;15.66;69.55
71304;DHT22;59091;47.446;19.148;2023-06-14T01:55:23;15.55;70.16
71304;DHT22;59091;47.446;19.148;2023-06-14T01:57:50;15.55;70.08
71304;DHT22;59091;47.446;19.148;2023-06-14T02:00:16;15.56;70.04
71304;DHT22;59091;47.446;19.148;2023-06-14T02:02:43;15.58;70.22
71304;DHT22;59091;47.446;19.148;2023-06-14T02:05:09;15.61;70.24
71304;DHT22;59091;47.446;19.148;2023-06-14T02:07:35;15.58;70.42
71304;DHT22;59091;47.446;19.148;2023-06-14T02:10:01;15.59;70.32
71304;DHT22;59091;47.446;19.148;2023-06-14T02:12:26;15.58;70.33
71304;DHT22;59091;47.446;19.148;2023-06-14T02:14:52;15.53;70.45
71304;DHT22;59091;47.446;19.148;2023-06-14T02:17:17;15.49;70.77
71304;DHT22;59091;47.446;19.148;2023-06-14T02:19:43;15.51;70.72
71304;DHT22;59091;47.446;19.148;2023-06-14T02:22:08;15.36;71.12
71304;DHT22;59091;47.446;19.148;2023-06-14T02:24:34;15.17;72.12
71304;DHT22;59091;47.446;19.148;2023-06-14T02:27:01;15.10;72.48
71304;DHT22;59091;47.446;19.148;2023-06-14T02:29:27;15.17;72.32
71304;DHT22;59091;47.446;19.148;2023-06-14T02:31:52;15.11;72.54
71304;DHT22;59091;47.446;19.148;2023-06-14T02:34:18;15.21;72.34
71304;DHT22;59091;47.446;19.148;2023-06-14T02:36:45;15.21;72.19
71304;DHT22;59091;47.446;19.148;2023-06-14T02:39:10;15.15;72.49
71304;DHT22;59091;47.446;19.148;2023-06-14T02:41:36;15.20;72.45
71304;DHT22;59091;47.446;19.148;2023-06-14T02:44:02;15.25;72.32
71304;DHT22;59091;47.446;19.148;2023-06-14T02:46:27;15.32;72.21
71304;DHT22;59091;47.446;19.148;2023-06-14T02:48:53;15.36;71.88
71304;DHT22;59091;47.446;19.148;2023-06-14T02:51:18;15.39;71.64
71304;DHT22;59091;47.446;19.148;2023-06-14T02:53:43;15.39;71.63
71304;DHT22;59091;47.446;19.148;2023-06-14T02:56:10;15.41;71.56
71304;DHT22;59091;47.446;19.148;2023-06-14T02:58:37;15.43;71.45
71304;DHT22;59091;47.446;19.148;2023-06-14T03:01:04;15.45;71.38
71304;DHT22;59091;47.446;19.148;2023-06-14T03:03:30;15.39;71.70
71304;DHT22;59091;47.446;19.148;2023-06-14T03:05:56;15.42;71.87
71304;DHT22;59091;47.446;19.148;2023-06-14T03:08:22;15.42;72.00
71304;DHT22;59091;47.446;19.148;2023-06-14T03:10:52;15.48;71.89
71304;DHT22;59091;47.446;19.148;2023-06-14T03:13:18;15.46;71.93
71304;DHT22;59091;47.446;19.148;2023-06-14T03:15:46;15.48;71.96
71304;DHT22;59091;47.446;19.148;2023-06-14T03:18:12;15.46;72.16
71304;DHT22;59091;47.446;19.148;2023-06-14T03:20:40;15.48;72.39
71304;DHT22;59091;47.446;19.148;2023-06-14T03:23:06;15.51;72.03
71304;DHT22;59091;47.446;19.148;2023-06-14T03:25:32;15.49;72.00
71304;DHT22;59091;47.446;19.148;2023-06-14T03:28:06;15.51;72.03
71304;DHT22;59091;47.446;19.148;2023-06-14T03:30:31;15.51;71.70
71304;DHT22;59091;47.446;19.148;2023-06-14T03:32:57;15.49;71.41
71304;DHT22;59091;47.446;19.148;2023-06-14T03:35:26;15.52;71.49
71304;DHT22;59091;47.446;19.148;2023-06-14T03:37:51;15.55;71.65
71304;DHT22;59091;47.446;19.148;2023-06-14T03:40:18;15.62;71.53
71304;DHT22;59091;47.446;19.148;2023-06-14T03:42:45;15.63;71.21
71304;DHT22;59091;47.446;19.148;2023-06-14T03:45:10;15.72;71.14
71304;DHT22;59091;47.446;19.148;2023-06-14T03:47:36;15.81;70.85
71304;DHT22;59091;47.446;19.148;2023-06-14T03:50:04;15.87;70.60
71304;DHT22;59091;47.446;19.148;2023-06-14T03:52:31;15.86;70.27
71304;DHT22;59091;47.446;19.148;2023-06-14T03:54:57;15.94;70.12
71304;DHT22;59091;47.446;19.148;2023-06-14T03:57:23;15.99;69.91
71304;DHT22;59091;47.446;19.148;2023-06-14T03:59:49;15.93;69.61
71304;DHT22;59091;47.446;19.148;2023-06-14T04:02:15;16.00;69.82
71304;DHT22;59091;47.446;19.148;2023-06-14T04:04:41;16.09;69.98
71304;DHT22;59091;47.446;19.148;2023-06-14T04:07:09;16.17;69.89
71304;DHT22;59091;47.446;19.148;2023-06-14T04:09:35;16.31;69.47
71304;DHT22;59091;47.446;19.148;2023-06-14T04:12:00;16.30;68.86
71304;DHT22;59091;47.446;19.148;2023-06-14T04:14:26;16.34;69.09
71304;DHT22;59091;47.446;19.148;2023-06-14T04:16:51;16.45;69.12
71304;DHT22;59091;47.446;19.148;2023-06-14T04:19:17;16.64;68.71
71304;DHT22;59091;47.446;19.148;2023-06-14T04:21:42;16.71;68.32
71304;DHT22;59091;47.446;19.148;2023-06-14T04:24:08;16.74;68.03
71304;DHT22;59091;47.446;19.148;2023-06-14T04:26:43;16.82;67.61
71304;DHT22;59091;47.446;19.148;2023-06-14T04:29:10;16.95;68.74
71304;DHT22;59091;47.446;19.148;2023-06-14T04:31:40;17.47;67.21
71304;DHT22;59091;47.446;19.148;2023-06-14T04:34:05;17.91;65.80
71304;DHT22;59091;47.446;19.148;2023-06-14T04:36:34;18.31;64.11
71304;DHT22;59091;47.446;19.148;2023-06-14T04:39:03;18.63;62.99
71304;DHT22;59091;47.446;19.148;2023-06-14T04:41:29;18.76;62.54
71304;DHT22;59091;47.446;19.148;2023-06-14T04:44:00;18.95;62.29
71304;DHT22;59091;47.446;19.148;2023-06-14T04:46:30;19.23;61.69
71304;DHT22;59091;47.446;19.148;2023-06-14T04:48:57;19.34;60.55
71304;DHT22;59091;47.446;19.148;2023-06-14T04:51:23;19.41;60.03
71304;DHT22;59091;47.446;19.148;2023-06-14T04:53:55;19.69;59.95
71304;DHT22;59091;47.446;19.148;2023-06-14T04:56:23;19.82;59.39
71304;DHT22;59091;47.446;19.148;2023-06-14T04:58:50;20.13;58.65
71304;DHT22;59091;47.446;19.148;2023-06-14T05:01:15;20.26;57.76
71304;DHT22;59091;47.446;19.148;2023-06-14T05:03:41;20.47;57.43
71304;DHT22;59091;47.446;19.148;2023-06-14T05:06:06;20.54;57.11
71304;DHT22;59091;47.446;19.148;2023-06-14T05:08:32;20.64;56.94
71304;DHT22;59091;47.446;19.148;2023-06-14T05:10:57;20.83;55.90
71304;DHT22;59091;47.446;19.148;2023-06-14T05:13:23;20.69;55.98
71304;DHT22;59091;47.446;19.148;2023-06-14T05:15:48;20.79;55.84
71304;DHT22;59091;47.446;19.148;2023-06-14T05:18:14;20.80;55.49
71304;DHT22;59091;47.446;19.148;2023-06-14T05:20:41;20.61;55.83
71304;DHT22;59091;47.446;19.148;2023-06-14T05:23:09;20.81;55.35
71304;DHT22;59091;47.446;19.148;2023-06-14T05:25:43;21.05;54.92
71304;DHT22;59091;47.446;19.148;2023-06-14T05:28:09;21.30;54.37
71304;DHT22;59091;47.446;19.148;2023-06-14T05:30:35;21.37;53.88
71304;DHT22;59091;47.446;19.148;2023-06-14T05:33:01;21.62;53.46
71304;DHT22;59091;47.446;19.148;2023-06-14T05:35:26;21.72;53.12
71304;DHT22;59091;47.446;19.148;2023-06-14T05:37:52;21.73;53.03
71304;DHT22;59091;47.446;19.148;2023-06-14T05:40:19;22.10;52.14
71304;DHT22;59091;47.446;19.148;2023-06-14T05:42:45;22.34;51.46
71304;DHT22;59091;47.446;19.148;2023-06-14T05:45:11;22.09;51.71
71304;DHT22;59091;47.446;19.148;2023-06-14T05:47:36;22.29;51.68
71304;DHT22;59091;47.446;19.148;2023-06-14T05:50:02;22.52;51.68
71304;DHT22;59091;47.446;19.148;2023-06-14T05:52:28;22.55;51.08
71304;DHT22;59091;47.446;19.148;2023-06-14T05:54:55;22.68;50.48
71304;DHT22;59091;47.446;19.148;2023-06-14T05:57:20;22.61;50.53
71304;DHT22;59091;47.446;19.148;2023-06-14T05:59:46;22.25;51.06
71304;DHT22;59091;47.446;19.148;2023-06-14T06:02:11;22.64;51.04
71304;DHT22;59091;47.446;19.148;2023-06-14T06:04:36;22.81;50.83
71304;DHT22;59091;47.446;19.148;2023-06-14T06:07:02;22.90;50.43
71304;DHT22;59091;47.446;19.148;2023-06-14T06:09:29;23.05;49.79
71304;DHT22;59091;47.446;19.148;2023-06-14T06:11:54;23.13;50.05
71304;DHT22;59091;47.446;19.148;2023-06-14T06:14:20;23.18;50.59
71304;DHT22;59091;47.446;19.148;2023-06-14T06:16:45;23.36;49.16
71304;DHT22;59091;47.446;19.148;2023-06-14T06:19:11;23.27;49.12
71304;DHT22;59091;47.446;19.148;2023-06-14T06:21:36;23.43;48.65
71304;DHT22;59091;47.446;19.148;2023-06-14T06:24:02;23.62;48.41
71304;DHT22;59091;47.446;19.148;2023-06-14T06:26:30;23.45;48.76
71304;DHT22;59091;47.446;19.148;2023-06-14T06:28:56;23.54;48.62
71304;DHT22;59091;47.446;19.148;2023-06-14T06:31:22;23.50;48.73
71304;DHT22;59091;47.446;19.148;2023-06-14T06:33:48;23.47;49.30
71304;DHT22;59091;47.446;19.148;2023-06-14T06:36:13;23.67;48.51
71304;DHT22;59091;47.446;19.148;2023-06-14T06:38:38;23.83;48.32
71304;DHT22;59091;47.446;19.148;2023-06-14T06:41:04;24.08;47.50
71304;DHT22;59091;47.446;19.148;2023-06-14T06:43:29;24.39;47.69
71304;DHT22;59091;47.446;19.148;2023-06-14T06:45:55;24.68;46.22
71304;DHT22;59091;47.446;19.148;2023-06-14T06:48:20;24.75;45.68
71304;DHT22;59091;47.446;19.148;2023-06-14T06:50:46;25.26;45.12
71304;DHT22;59091;47.446;19.148;2023-06-14T06:53:11;25.57;43.23
71304;DHT22;59091;47.446;19.148;2023-06-14T06:55:37;25.61;44.11
71304;DHT22;59091;47.446;19.148;2023-06-14T06:58:02;26.19;42.36
71304;DHT22;59091;47.446;19.148;2023-06-14T07:00:29;26.37;42.79
71304;DHT22;59091;47.446;19.148;2023-06-14T07:02:55;26.09;42.99
71304;DHT22;59091;47.446;19.148;2023-06-14T07:05:22;25.92;42.99
71304;DHT22;59091;47.446;19.148;2023-06-14T07:07:48;25.54;42.89
71304;DHT22;59091;47.446;19.148;2023-06-14T07:10:13;25.47;43.32
71304;DHT22;59091;47.446;19.148;2023-06-14T07:12:39;25.40;42.66
71304;DHT22;59091;47.446;19.148;2023-06-14T07:15:08;25.64;43.47
71304;DHT22;59091;47.446;19.148;2023-06-14T07:17:34;25.64;43.10
71304;DHT22;59091;47.446;19.148;2023-06-14T07:20:02;25.57;43.90
71304;DHT22;59091;47.446;19.148;2023-06-14T07:22:38;25.38;43.96
71304;DHT22;59091;47.446;19.148;2023-06-14T07:25:06;25.34;44.02
71304;DHT22;59091;47.446;19.148;2023-06-14T07:27:31;25.45;43.89
71304;DHT22;59091;47.446;19.148;2023-06-14T07:29:57;25.37;43.93
71304;DHT22;59091;47.446;19.148;2023-06-14T07:32:22;25.43;43.76
71304;DHT22;59091;47.446;19.148;2023-06-14T07:34:48;25.31;43.69
71304;DHT22;59091;47.446;19.148;2023-06-14T07:37:13;25.38;44.01
71304;DHT22;59091;47.446;19.148;2023-06-14T07:39:38;25.00;44.54
71304;DHT22;59091;47.446;19.148;2023-06-14T07:42:04;25.22;44.25
71304;DHT22;59091;47.446;19.148;2023-06-14T07:44:30;25.13;44.34
71304;DHT22;59091;47.446;19.148;2023-06-14T07:46:58;25.22;44.23
71304;DHT22;59091;47.446;19.148;2023-06-14T07:49:25;25.37;44.56
71304;DHT22;59091;47.446;19.148;2023-06-14T07:51:51;24.97;44.99
71304;DHT22;59091;47.446;19.148;2023-06-14T07:54:16;24.89;45.04
71304;DHT22;59091;47.446;19.148;2023-06-14T07:56:42;24.76;44.44
71304;DHT22;59091;47.446;19.148;2023-06-14T07:59:08;24.71;45.28
71304;DHT22;59091;47.446;19.148;2023-06-14T08:01:34;24.83;44.75
71304;DHT22;59091;47.446;19.148;2023-06-14T08:04:00;25.10;44.18
71304;DHT22;59091;47.446;19.148;2023-06-14T08:06:26;25.02;43.98
71304;DHT22;59091;47.446;19.148;2023-06-14T08:08:51;25.73;43.15
71304;DHT22;59091;47.446;19.148;2023-06-14T08:11:17;26.19;42.78
71304;DHT22;59091;47.446;19.148;2023-06-14T08:13:42;26.08;43.34
71304;DHT22;59091;47.446;19.148;2023-06-14T08:16:08;26.88;41.08
71304;DHT22;59091;47.446;19.148;2023-06-14T08:18:33;27.84;39.39
71304;DHT22;59091;47.446;19.148;2023-06-14T08:20:59;27.63;38.85
71304;DHT22;59091;47.446;19.148;2023-06-14T08:23:24;27.69;37.73
71304;DHT22;59091;47.446;19.148;2023-06-14T08:25:50;27.31;39.83
71304;DHT22;59091;47.446;19.148;2023-06-14T08:28:16;27.30;40.29
71304;DHT22;59091;47.446;19.148;2023-06-14T08:30:42;26.96;40.76
71304;DHT22;59091;47.446;19.148;2023-06-14T08:33:08;27.12;40.60
71304;DHT22;59091;47.446;19.148;2023-06-14T08:35:34;27.03;40.25
71304;DHT22;59091;47.446;19.148;2023-06-14T08:38:03;27.10;41.04
71304;DHT22;59091;47.446;19.148;2023-06-14T08:40:30;27.25;41.03
71304;DHT22;59091;47.446;19.148;2023-06-14T08:42:56;27.38;41.48
71304;DHT22;59091;47.446;19.148;2023-06-14T08:45:22;28.06;38.96
71304;DHT22;59091;47.446;19.148;2023-06-14T08:47:48;28.30;41.15
71304;DHT22;59091;47.446;19.148;2023-06-14T08:50:21;28.35;37.00
71304;DHT22;59091;47.446;19.148;2023-06-14T08:52:51;28.54;37.16
71304;DHT22;59091;47.446;19.148;2023-06-14T08:55:18;28.40;36.11
71304;DHT22;59091;47.446;19.148;2023-06-14T08:57:46;28.19;36.71
71304;DHT22;59091;47.446;19.148;2023-06-14T09:00:12;27.90;37.48
71304;DHT22;59091;47.446;19.148;2023-06-14T09:02:39;27.21;36.16
71304;DHT22;59091;47.446;19.148;2023-06-14T09:05:09;26.93;37.65
71304;DHT22;59091;47.446;19.148;2023-06-14T09:07:36;26.94;38.00
71304;DHT22;59091;47.446;19.148;2023-06-14T09:10:11;27.06;36.96
71304;DHT22;59091;47.446;19.148;2023-06-14T09:12:37;27.86;37.08
71304;DHT22;59091;47.446;19.148;2023-06-14T09:15:06;27.45;36.40
71304;DHT22;59091;47.446;19.148;2023-06-14T09:17:34;28.32;36.29
71304;DHT22;59091;47.446;19.148;2023-06-14T09:20:04;28.65;36.66
71304;DHT22;59091;47.446;19.148;2023-06-14T09:22:47;28.39;35.97
71304;DHT22;59091;47.446;19.148;2023-06-14T09:25:12;28.12;36.01
71304;DHT22;59091;47.446;19.148;2023-06-14T09:27:40;27.96;34.91
71304;DHT22;59091;47.446;19.148;2023-06-14T09:30:09;27.31;35.79
71304;DHT22;59091;47.446;19.148;2023-06-14T09:32:38;27.56;36.01
71304;DHT22;59091;47.446;19.148;2023-06-14T09:35:07;27.28;35.93
71304;DHT22;59091;47.446;19.148;2023-06-14T09:37:33;27.34;34.41
71304;DHT22;59091;47.446;19.148;2023-06-14T09:39:59;27.24;36.17
71304;DHT22;59091;47.446;19.148;2023-06-14T09:42:25;27.47;35.39
71304;DHT22;59091;47.446;19.148;2023-06-14T09:44:54;27.62;35.56
71304;DHT22;59091;47.446;19.148;2023-06-14T09:47:20;28.06;35.78
71304;DHT22;59091;47.446;19.148;2023-06-14T09:49:47;28.43;35.00
71304;DHT22;59091;47.446;19.148;2023-06-14T09:52:18;28.41;34.64
71304;DHT22;59091;47.446;19.148;2023-06-14T09:54:45;28.33;34.11
71304;DHT22;59091;47.446;19.148;2023-06-14T09:57:17;28.51;33.74
71304;DHT22;59091;47.446;19.148;2023-06-14T09:59:46;28.54;33.82
71304;DHT22;59091;47.446;19.148;2023-06-14T10:02:26;27.97;35.17
71304;DHT22;59091;47.446;19.148;2023-06-14T10:05:18;27.66;36.48
71304;DHT22;59091;47.446;19.148;2023-06-14T10:07:50;26.82;37.02
71304;DHT22;59091;47.446;19.148;2023-06-14T10:10:17;26.50;36.56
71304;DHT22;59091;47.446;19.148;2023-06-14T10:12:44;26.35;38.67
71304;DHT22;59091;47.446;19.148;2023-06-14T10:15:15;26.14;39.41
71304;DHT22;59091;47.446;19.148;2023-06-14T10:17:50;26.12;39.14
71304;DHT22;59091;47.446;19.148;2023-06-14T10:20:30;26.02;39.14
71304;DHT22;59091;47.446;19.148;2023-06-14T10:23:30;25.70;37.43
71304;DHT22;59091;47.446;19.148;2023-06-14T10:25:58;25.26;40.13
71304;DHT22;59091;47.446;19.148;2023-06-14T10:28:25;24.96;38.89
71304;DHT22;59091;47.446;19.148;2023-06-14T10:31:08;25.09;38.95
71304;DHT22;59091;47.446;19.148;2023-06-14T10:34:00;24.83;39.26
71304;DHT22;59091;47.446;19.148;2023-06-14T10:36:30;24.80;38.10
71304;DHT22;59091;47.446;19.148;2023-06-14T10:39:04;24.77;37.95
71304;DHT22;59091;47.446;19.148;2023-06-14T10:41:34;25.06;39.41
71304;DHT22;59091;47.446;19.148;2023-06-14T10:46:45;25.45;36.63
71304;DHT22;59091;47.446;19.148;2023-06-14T10:49:11;25.65;36.25
71304;DHT22;59091;47.446;19.148;2023-06-14T10:51:41;25.67;36.99
71304;DHT22;59091;47.446;19.148;2023-06-14T10:54:13;26.11;36.69
71304;DHT22;59091;47.446;19.148;2023-06-14T10:56:49;26.31;33.40
71304;DHT22;59091;47.446;19.148;2023-06-14T10:59:17;26.33;34.77
71304;DHT22;59091;47.446;19.148;2023-06-14T11:04:20;26.09;32.97
71304;DHT22;59091;47.446;19.148;2023-06-14T11:06:47;25.91;34.13
71304;DHT22;59091;47.446;19.148;2023-06-14T11:12:07;26.21;33.78
71304;DHT22;59091;47.446;19.148;2023-06-14T11:14:35;26.22;34.95
71304;DHT22;59091;47.446;19.148;2023-06-14T11:17:00;26.31;32.43
71304;DHT22;59091;47.446;19.148;2023-06-14T11:19:26;26.32;31.68
71304;DHT22;59091;47.446;19.148;2023-06-14T11:21:54;26.76;32.38
71304;DHT22;59091;47.446;19.148;2023-06-14T11:24:19;26.84;33.40
71304;DHT22;59091;47.446;19.148;2023-06-14T11:26:46;26.82;29.02
71304;DHT22;59091;47.446;19.148;2023-06-14T11:29:14;26.75;30.31
71304;DHT22;59091;47.446;19.148;2023-06-14T11:31:43;26.72;31.08
71304;DHT22;59091;47.446;19.148;2023-06-14T11:34:09;26.69;31.69
71304;DHT22;59091;47.446;19.148;2023-06-14T11:36:35;26.75;30.32
71304;DHT22;59091;47.446;19.148;2023-06-14T11:39:06;26.72;31.53
71304;DHT22;59091;47.446;19.148;2023-06-14T11:41:40;27.07;31.12
71304;DHT22;59091;47.446;19.148;2023-06-14T11:44:06;27.17;33.97
71304;DHT22;59091;47.446;19.148;2023-06-14T11:46:32;27.06;31.56
71304;DHT22;59091;47.446;19.148;2023-06-14T11:48:58;26.70;31.37
71304;DHT22;59091;47.446;19.148;2023-06-14T11:51:24;27.11;31.86
71304;DHT22;59091;47.446;19.148;2023-06-14T11:53:49;27.41;32.08
71304;DHT22;59091;47.446;19.148;2023-06-14T11:56:15;27.82;31.22
71304;DHT22;59091;47.446;19.148;2023-06-14T11:58:43;28.07;30.19
71304;DHT22;59091;47.446;19.148;2023-06-14T12:01:08;27.96;32.37
71304;DHT22;59091;47.446;19.148;2023-06-14T12:03:34;27.92;30.09
71304;DHT22;59091;47.446;19.148;2023-06-14T12:06:08;28.16;29.08
71304;DHT22;59091;47.446;19.148;2023-06-14T12:08:37;28.48;29.39
71304;DHT22;59091;47.446;19.148;2023-06-14T12:11:07;28.47;28.61
71304;DHT22;59091;47.446;19.148;2023-06-14T12:13:38;28.50;28.26
71304;DHT22;59091;47.446;19.148;2023-06-14T12:16:09;28.81;29.36
71304;DHT22;59091;47.446;19.148;2023-06-14T12:18:36;28.60;29.60
71304;DHT22;59091;47.446;19.148;2023-06-14T12:21:06;28.56;31.41
71304;DHT22;59091;47.446;19.148;2023-06-14T12:23:47;28.54;29.43
71304;DHT22;59091;47.446;19.148;2023-06-14T12:26:17;28.41;27.63
71304;DHT22;59091;47.446;19.148;2023-06-14T12:28:47;28.43;30.39
71304;DHT22;59091;47.446;19.148;2023-06-14T12:31:14;28.51;29.11
71304;DHT22;59091;47.446;19.148;2023-06-14T12:33:40;28.37;30.76
71304;DHT22;59091;47.446;19.148;2023-06-14T12:36:07;28.56;29.55
71304;DHT22;59091;47.446;19.148;2023-06-14T12:38:33;28.48;29.51
71304;DHT22;59091;47.446;19.148;2023-06-14T12:40:59;28.53;30.47
71304;DHT22;59091;47.446;19.148;2023-06-14T12:43:24;28.97;29.60
71304;DHT22;59091;47.446;19.148;2023-06-14T12:45:50;29.08;28.80
71304;DHT22;59091;47.446;19.148;2023-06-14T12:48:15;29.23;29.05
71304;DHT22;59091;47.446;19.148;2023-06-14T12:50:41;29.53;28.34
71304;DHT22;59091;47.446;19.148;2023-06-14T12:53:07;29.89;27.38
71304;DHT22;59091;47.446;19.148;2023-06-14T12:55:32;30.03;28.45
71304;DHT22;59091;47.446;19.148;2023-06-14T12:57:58;30.07;28.75
71304;DHT22;59091;47.446;19.148;2023-06-14T13:00:23;29.15;30.52
71304;DHT22;59091;47.446;19.148;2023-06-14T13:02:51;28.24;31.49
71304;DHT22;59091;47.446;19.148;2023-06-14T13:05:17;28.79;31.22
71304;DHT22;59091;47.446;19.148;2023-06-14T13:07:43;28.44;31.43
71304;DHT22;59091;47.446;19.148;2023-06-14T13:10:08;28.26;31.43
71304;DHT22;59091;47.446;19.148;2023-06-14T13:12:34;28.64;30.43
71304;DHT22;59091;47.446;19.148;2023-06-14T13:14:59;28.60;30.31
71304;DHT22;59091;47.446;19.148;2023-06-14T13:17:25;28.24;31.54
71304;DHT22;59091;47.446;19.148;2023-06-14T13:19:51;27.41;31.76
71304;DHT22;59091;47.446;19.148;2023-06-14T13:22:16;27.54;31.21
71304;DHT22;59091;47.446;19.148;2023-06-14T13:24:42;27.68;31.80
71304;DHT22;59091;47.446;19.148;2023-06-14T13:27:07;28.00;30.58
71304;DHT22;59091;47.446;19.148;2023-06-14T13:29:33;28.10;31.26
71304;DHT22;59091;47.446;19.148;2023-06-14T13:32:01;27.78;31.38
71304;DHT22;59091;47.446;19.148;2023-06-14T13:34:26;27.89;32.55
71304;DHT22;59091;47.446;19.148;2023-06-14T13:36:52;27.85;32.41
71304;DHT22;59091;47.446;19.148;2023-06-14T13:39:17;27.61;35.19
71304;DHT22;59091;47.446;19.148;2023-06-14T13:41:43;27.34;33.38
71304;DHT22;59091;47.446;19.148;2023-06-14T13:44:08;27.38;33.38
71304;DHT22;59091;47.446;19.148;2023-06-14T13:46:36;27.45;32.83
71304;DHT22;59091;47.446;19.148;2023-06-14T13:49:03;27.51;33.84
71304;DHT22;59091;47.446;19.148;2023-06-14T13:51:30;26.87;34.26
71304;DHT22;59091;47.446;19.148;2023-06-14T13:53:55;27.14;34.36
71304;DHT22;59091;47.446;19.148;2023-06-14T13:56:21;26.77;34.32
71304;DHT22;59091;47.446;19.148;2023-06-14T13:58:49;27.00;34.79
71304;DHT22;59091;47.446;19.148;2023-06-14T14:01:14;27.38;33.60
71304;DHT22;59091;47.446;19.148;2023-06-14T14:03:40;27.35;34.77
71304;DHT22;59091;47.446;19.148;2023-06-14T14:06:05;27.45;35.26
71304;DHT22;59091;47.446;19.148;2023-06-14T14:08:32;27.55;34.74
71304;DHT22;59091;47.446;19.148;2023-06-14T14:10:58;27.33;34.68
71304;DHT22;59091;47.446;19.148;2023-06-14T14:13:23;27.33;35.21
71304;DHT22;59091;47.446;19.148;2023-06-14T14:15:50;27.65;35.61
71304;DHT22;59091;47.446;19.148;2023-06-14T14:18:16;27.84;35.60
71304;DHT22;59091;47.446;19.148;2023-06-14T14:20:41;27.72;35.60
71304;DHT22;59091;47.446;19.148;2023-06-14T14:23:07;27.49;35.54
71304;DHT22;59091;47.446;19.148;2023-06-14T14:25:32;27.52;35.38
71304;DHT22;59091;47.446;19.148;2023-06-14T14:27:57;27.30;34.00
71304;DHT22;59091;47.446;19.148;2023-06-14T14:30:23;27.23;34.11
71304;DHT22;59091;47.446;19.148;2023-06-14T14:32:53;27.14;34.41
71304;DHT22;59091;47.446;19.148;2023-06-14T14:35:18;27.01;36.38
71304;DHT22;59091;47.446;19.148;2023-06-14T14:37:44;26.97;36.57
71304;DHT22;59091;47.446;19.148;2023-06-14T14:40:11;27.12;35.29
71304;DHT22;59091;47.446;19.148;2023-06-14T14:42:36;27.07;35.45
71304;DHT22;59091;47.446;19.148;2023-06-14T14:45:02;26.96;35.46
71304;DHT22;59091;47.446;19.148;2023-06-14T14:47:28;26.77;35.66
71304;DHT22;59091;47.446;19.148;2023-06-14T14:49:53;26.80;36.03
71304;DHT22;59091;47.446;19.148;2023-06-14T14:52:19;26.56;35.04
71304;DHT22;59091;47.446;19.148;2023-06-14T14:54:44;26.40;34.94
71304;DHT22;59091;47.446;19.148;2023-06-14T14:57:10;26.72;35.00
71304;DHT22;59091;47.446;19.148;2023-06-14T14:59:36;26.63;34.33
71304;DHT22;59091;47.446;19.148;2023-06-14T15:02:01;26.55;35.11
71304;DHT22;59091;47.446;19.148;2023-06-14T15:04:27;26.87;35.28
71304;DHT22;59091;47.446;19.148;2023-06-14T15:06:52;26.42;35.35
71304;DHT22;59091;47.446;19.148;2023-06-14T15:09:18;26.53;34.86
71304;DHT22;59091;47.446;19.148;2023-06-14T15:11:43;26.69;34.70
71304;DHT22;59091;47.446;19.148;2023-06-14T15:14:10;26.63;35.12
71304;DHT22;59091;47.446;19.148;2023-06-14T15:16:35;26.25;34.68
71304;DHT22;59091;47.446;19.148;2023-06-14T15:19:01;26.37;35.15
71304;DHT22;59091;47.446;19.148;2023-06-14T15:21:26;26.05;34.97
71304;DHT22;59091;47.446;19.148;2023-06-14T15:23:52;26.22;35.80
71304;DHT22;59091;47.446;19.148;2023-06-14T15:26:19;26.26;36.29
71304;DHT22;59091;47.446;19.148;2023-06-14T15:28:45;26.06;35.23